METAR Reports for West Virginia

 

KMRB - Martinsburg, West Virginia, USA
Distance from station: NW 50mi, 81km
Updated: Wed, 17-Jan-2018 9:53am EST
Clear
Clear
 Wind from NNW
Wind: NNW 9 mph , 15 km/h
Temperature: 18°F , -8°C
Wind Chill: 7°F , -14°C
Dew Point: 7°F , -14°C
Humidity: 62%
Barometer: 30.44 inHg , 1030.8 hPa
Clouds: Clear
Visibility: 10 miles , 16 km
2018/01/17 14:53 KMRB 171453Z 33008KT 10SM CLR M08/M14 A3044 RMK AO2 SLP315 T10781144 530
KW99 - Petersburg, West Virginia, USA
Distance from station: W 94mi, 151km
Updated: Wed, 17-Jan-2018 9:30am EST
Partly cloudy
Partly cloudy
 Wind from N
Wind: N 6 mph , 9 km/h
Temperature: 18°F , -8°C
Wind Chill: 10°F , -12°C
Dew Point: 5°F , -15°C
Humidity: 58%
Barometer: 30.42 inHg , 1030.1 hPa
Clouds: Partly cloudy
Visibility: 10 miles , 16 km
Cloud details: Partly cloudy 12000 ft
2018/01/17 14:30 KW99 171430Z AUTO 01005KT 10SM SCT120 M08/M15 A3042 RMK AO2 T10811155
KEKN - Elkins, West Virginia, USA
Distance from station: W 131mi, 211km
Updated: Wed, 17-Jan-2018 9:51am EST
Haze, Overcast
Haze, Overcast
 Wind from varies
Wind: varies 3 mph , 6 km/h
Temperature: 9°F , -13°C
Dew Point: 1°F , -17°C
Humidity: 72%
Barometer: 30.38 inHg , 1028.8 hPa
Summary: Haze
Clouds: Overcast
Visibility: 5 miles , 8 km
Cloud details: Overcast 1800 ft
2018/01/17 14:51 KEKN 171451Z AUTO VRB03KT 5SM HZ OVC018 M13/M17 A3038 RMK AO2 SNE47 SLP330 P0000 60000 T11281167 50003 TSNO
 
KMGW - Morgantown, West Virginia, USA
Distance from station: WNW 145mi, 234km
Updated: Wed, 17-Jan-2018 9:53am EST
Light snow, Overcast
Light snow, Overcast
 Wind from varies
Wind: varies 3 mph , 6 km/h
Temperature: 9°F , -13°C
Dew Point: 1°F , -17°C
Humidity: 72%
Barometer: 30.48 inHg , 1032.2 hPa
Summary: Light Snow
Clouds: Overcast
Visibility: 1 1/2 miles , 2 km
Cloud details: Overcast 1900 ft
2018/01/17 14:53 KMGW 171453Z VRB03KT 1 1/2SM -SN OVC019 M13/M17 A3048 RMK AO2 SLP346 P0000 600
KCKB - Clarksburg, West Virginia, USA
Distance from station: WNW 154mi, 247km
Updated: Wed, 17-Jan-2018 9:53am EST
Light snow, Overcast
Light snow, Overcast
 Wind from W
Wind: W 3 mph , 6 km/h
Temperature: 9°F , -13°C
Dew Point: 1°F , -17°C
Humidity: 72%
Barometer: 30.48 inHg , 1032.2 hPa
Summary: Light Snow
Clouds: Overcast
Visibility: 1 3/4 miles , 5 km
Cloud details: Overcast 1900 ft
2018/01/17 14:53 KCKB 171453Z 26003KT 1 3/4SM -SN OVC019 M13/M17 A3048 RMK AO2 SLP341 P0000 600
KW22 - Buckhannon, West Virginia, USA
Distance from station: W 154mi, 247km
Updated: Wed, 17-Jan-2018 9:35am EST
Light snow, Overcast
Light snow, Overcast
 Wind from calm
Wind: Calm
Temperature: 5°F , -15°C
Dew Point: 1°F , -17°C
Humidity: 85%
Barometer: 30.42 inHg , 1030.1 hPa
Summary: Light Snow
Clouds: Overcast
Visibility: 3 miles , 5 km
Cloud details: Few Clouds 600 ft
Partly cloudy 1000 ft
Overcast 1400 ft
2018/01/17 14:35 KW22 171435Z AUTO 00000KT 3SM -SN FEW006 SCT010 OVC014 M15/M17 A3042 RMK AO2
 
KHLG - Wheeling, West Virginia, USA
Distance from station: WNW 196mi, 315km
Updated: Wed, 17-Jan-2018 9:53am EST
Light snow, Overcast
Light snow, Overcast
 Wind from W
Wind: W 5 mph , 7 km/h
Temperature: 5°F , -15°C
Wind Chill: -5°F , -21°C
Dew Point: -0°F , -18°C
Humidity: 78%
Barometer: 30.49 inHg , 1032.5 hPa
Summary: Light Snow
Clouds: Overcast
Visibility: 1 1/2 miles , 2 km
Cloud details: Overcast 1100 ft
2018/01/17 14:53 KHLG 171453Z 27004KT 1 1/2SM -SN OVC011 M15/M18 A3049 RMK AO2 SNB1355 SLP355 P0000 60000 T11501178 53003
KPKB - Parkersburg, West Virginia, USA
Distance from station: W 217mi, 350km
Updated: Wed, 17-Jan-2018 9:53am EST
Haze, Mostly cloudy
Haze, Mostly cloudy
 Wind from calm
Wind: Calm
Temperature: 7°F , -14°C
Dew Point: 1°F , -17°C
Humidity: 78%
Barometer: 30.57 inHg , 1035.2 hPa
Summary: Haze
Clouds: Mostly cloudy
Visibility: 4 miles , 6 km
Cloud details: Mostly cloudy 1600 ft
2018/01/17 14:53 KPKB 171453Z 00000KT 4SM HZ BKN016 M14/M17 A3057 RMK AO2 SLP373 VIS W-NE 2 1/2SM 60000 T11441172 51005
KCRW - Charleston, West Virginia, USA
Distance from station: WSW 227mi, 365km
Updated: Wed, 17-Jan-2018 8:54am EST
Light snow, Overcast
Light snow, Overcast
 Wind from NW
Wind: NW 7 mph , 11 km/h
Temperature: 9°F , -13°C
Wind Chill: -2°F , -19°C
Dew Point: 3°F , -16°C
Humidity: 78%
Barometer: 30.50 inHg , 1032.8 hPa
Summary: Light Snow
Clouds: Overcast
Visibility: 7 miles , 11 km
Cloud details: Few Clouds 0 ft
Overcast 1700 ft
2018/01/17 13:54 KCRW 171354Z 32006KT 7SM -SN FEW000 OVC017 M13/M16 A3050 RMK AO2 SLP347 FG FEW000 P0000 T11281161
 
KLWB - Lewisburg, West Virginia, USA
Distance from station: WSW 175mi, 281km
Updated: Wed, 17-Jan-2018 9:35am EST
Overcast
Overcast
 Wind from calm
Wind: Calm
Temperature: 12°F , -11°C
Dew Point: 7°F , -14°C
Humidity: 79%
Barometer: 30.30 inHg , 1026.1 hPa
Clouds: Overcast
Visibility: 10 miles , 16 km
Cloud details: Overcast 8000 ft
2018/01/17 14:35 KLWB 171435Z AUTO 00000KT 10SM OVC080 M11/M14 A3030 RMK AO2 T11061142
KBKW - Beckley, West Virginia, USA
Distance from station: WSW 213mi, 342km
Updated: Wed, 17-Jan-2018 9:51am EST
Light snow, Overcast
Light snow, Overcast
 Wind from N
Wind: N 8 mph , 13 km/h
Temperature: 7°F , -14°C
Wind Chill: -6°F , -21°C
Dew Point: 1°F , -17°C
Humidity: 78%
Barometer: 30.31 inHg , 1026.4 hPa
Summary: Light Snow
Clouds: Overcast
Visibility: 1 1/2 miles , 2 km
Cloud details: Overcast 1100 ft
2018/01/17 14:51 KBKW 171451Z AUTO 01007KT 1 1/2SM -SN OVC011 M14/M17 A3031 RMK AO2 VIS 3/4 RWY19 SLP326 P0000 60000 T11441172 55000 TSNO
KBLF - Bluefield, West Virginia, USA
Distance from station: SW 231mi, 372km
Updated: Wed, 17-Jan-2018 9:52am EST
Overcast
Overcast
 Wind from NNW
Wind: NNW 6 mph , 9 km/h
Temperature: 7°F , -14°C
Wind Chill: -4°F , -20°C
Dew Point: 3°F , -16°C
Humidity: 85%
Barometer: 30.27 inHg , 1025.1 hPa
Clouds: Overcast
Visibility: 10 miles , 16 km
Cloud details: Overcast 1200 ft
2018/01/17 14:52 KBLF 171452Z AUTO 34005KT 10SM OVC012 M14/M16 A3027 RMK AO2 SNB1359E27 SLP298 P0000 60000 T11391161 51002
 
KI16 - Pineville, West Virginia, USA
Distance from station: WSW 240mi, 387km
Updated: Fri, 05-Jan-2018 10:55am EST
NOT Current
Light Snow
Light Snow
 
Temperature: 12°F , -11°C
Dew Point: 3°F , -16°C
Humidity: 67%
Barometer: 30.27 inHg , 1025.1 hPa
Summary: Light Snow
Visibility: 4 miles , 6 km
2018/01/05 15:55 KI16 051555Z AUTO 4SM -SN M11/M16 A3027 RMK AO2 T11071156
KHTS - Huntington, West Virginia, USA
Distance from station: W 279mi, 449km
Updated: Wed, 17-Jan-2018 9:51am EST
Light snow, Overcast
Light snow, Overcast
 Wind from WNW
Wind: WNW 3 mph , 6 km/h
Temperature: 9°F , -13°C
Dew Point: 3°F , -16°C
Humidity: 78%
Barometer: 30.55 inHg , 1034.5 hPa
Summary: Light Snow
Clouds: Overcast
Visibility: 4 miles , 6 km
Cloud details: Overcast 1600 ft
2018/01/17 14:51 KHTS 171451Z 29003KT 4SM -SN OVC016 M13/M16 A3055 RMK AO2 SLP362 P0000 60000 T11281156 53005